sensor_id;sensor_type;location;lat;lon;timestamp;temperature;humidity
7902;DHT22;3996;49.674;10.716;2023-03-13T00:01:10;7.60;69.00
7902;DHT22;3996;49.674;10.716;2023-03-13T00:03:36;7.50;68.50
7902;DHT22;3996;49.674;10.716;2023-03-13T00:06:02;7.50;68.10
7902;DHT22;3996;49.674;10.716;2023-03-13T00:08:28;7.40;69.00
7902;DHT22;3996;49.674;10.716;2023-03-13T00:10:54;7.40;69.20
7902;DHT22;3996;49.674;10.716;2023-03-13T00:13:19;7.40;69.40
7902;DHT22;3996;49.674;10.716;2023-03-13T00:15:45;7.40;70.30
7902;DHT22;3996;49.674;10.716;2023-03-13T00:18:10;7.30;69.80
7902;DHT22;3996;49.674;10.716;2023-03-13T00:20:36;7.30;69.70
7902;DHT22;3996;49.674;10.716;2023-03-13T00:23:01;7.30;70.80
7902;DHT22;3996;49.674;10.716;2023-03-13T00:25:26;7.30;71.40
7902;DHT22;3996;49.674;10.716;2023-03-13T00:27:52;7.20;71.10
7902;DHT22;3996;49.674;10.716;2023-03-13T00:30:17;7.20;71.40
7902;DHT22;3996;49.674;10.716;2023-03-13T00:32:44;7.10;71.40
7902;DHT22;3996;49.674;10.716;2023-03-13T00:35:11;7.20;71.80
7902;DHT22;3996;49.674;10.716;2023-03-13T00:37:36;7.20;71.70
7902;DHT22;3996;49.674;10.716;2023-03-13T00:40:02;7.10;71.90
7902;DHT22;3996;49.674;10.716;2023-03-13T00:42:28;7.10;72.00
7902;DHT22;3996;49.674;10.716;2023-03-13T00:44:54;7.10;72.00
7902;DHT22;3996;49.674;10.716;2023-03-13T00:47:19;7.10;72.00
7902;DHT22;3996;49.674;10.716;2023-03-13T00:49:45;7.10;72.00
7902;DHT22;3996;49.674;10.716;2023-03-13T00:52:10;7.10;72.00
7902;DHT22;3996;49.674;10.716;2023-03-13T00:54:36;7.20;71.40
7902;DHT22;3996;49.674;10.716;2023-03-13T00:57:01;7.10;71.10
7902;DHT22;3996;49.674;10.716;2023-03-13T00:59:27;7.10;71.40
7902;DHT22;3996;49.674;10.716;2023-03-13T01:01:52;7.10;71.50
7902;DHT22;3996;49.674;10.716;2023-03-13T01:04:18;7.10;72.00
7902;DHT22;3996;49.674;10.716;2023-03-13T01:06:43;7.10;71.40
7902;DHT22;3996;49.674;10.716;2023-03-13T01:09:10;7.10;71.80
7902;DHT22;3996;49.674;10.716;2023-03-13T01:11:37;7.10;71.90
7902;DHT22;3996;49.674;10.716;2023-03-13T01:14:04;7.10;71.70
7902;DHT22;3996;49.674;10.716;2023-03-13T01:16:30;7.10;71.80
7902;DHT22;3996;49.674;10.716;2023-03-13T01:18:58;7.10;71.70
7902;DHT22;3996;49.674;10.716;2023-03-13T01:21:24;7.00;71.50
7902;DHT22;3996;49.674;10.716;2023-03-13T01:23:51;7.00;71.80
7902;DHT22;3996;49.674;10.716;2023-03-13T01:26:17;7.00;71.90
7902;DHT22;3996;49.674;10.716;2023-03-13T01:28:42;7.00;71.90
7902;DHT22;3996;49.674;10.716;2023-03-13T01:31:18;7.00;71.40
7902;DHT22;3996;49.674;10.716;2023-03-13T01:33:44;6.90;71.70
7902;DHT22;3996;49.674;10.716;2023-03-13T01:36:10;6.70;72.50
7902;DHT22;3996;49.674;10.716;2023-03-13T01:38:36;6.70;73.50
7902;DHT22;3996;49.674;10.716;2023-03-13T01:41:02;6.70;73.50
7902;DHT22;3996;49.674;10.716;2023-03-13T01:43:28;6.70;73.90
7902;DHT22;3996;49.674;10.716;2023-03-13T01:46:01;6.80;73.30
7902;DHT22;3996;49.674;10.716;2023-03-13T01:48:32;6.80;72.70
7902;DHT22;3996;49.674;10.716;2023-03-13T01:50:59;6.80;73.10
7902;DHT22;3996;49.674;10.716;2023-03-13T01:53:25;6.80;73.30
7902;DHT22;3996;49.674;10.716;2023-03-13T01:55:52;6.70;74.40
7902;DHT22;3996;49.674;10.716;2023-03-13T01:58:18;6.80;73.30
7902;DHT22;3996;49.674;10.716;2023-03-13T02:00:44;6.80;72.80
7902;DHT22;3996;49.674;10.716;2023-03-13T02:03:11;6.80;73.10
7902;DHT22;3996;49.674;10.716;2023-03-13T02:05:38;6.80;73.70
7902;DHT22;3996;49.674;10.716;2023-03-13T02:08:07;6.80;73.30
7902;DHT22;3996;49.674;10.716;2023-03-13T02:10:41;6.80;72.90
7902;DHT22;3996;49.674;10.716;2023-03-13T02:13:08;6.90;71.80
7902;DHT22;3996;49.674;10.716;2023-03-13T02:15:39;6.90;71.60
7902;DHT22;3996;49.674;10.716;2023-03-13T02:18:05;7.00;71.70
7902;DHT22;3996;49.674;10.716;2023-03-13T02:20:30;6.90;71.50
7902;DHT22;3996;49.674;10.716;2023-03-13T02:25:44;6.90;71.80
7902;DHT22;3996;49.674;10.716;2023-03-13T02:30:38;6.90;72.90
7902;DHT22;3996;49.674;10.716;2023-03-13T02:33:06;6.90;72.90
7902;DHT22;3996;49.674;10.716;2023-03-13T02:35:31;6.80;72.10
7902;DHT22;3996;49.674;10.716;2023-03-13T02:37:58;6.80;73.10
7902;DHT22;3996;49.674;10.716;2023-03-13T02:40:27;6.80;73.20
7902;DHT22;3996;49.674;10.716;2023-03-13T02:42:53;6.80;73.40
7902;DHT22;3996;49.674;10.716;2023-03-13T02:45:20;6.80;72.80
7902;DHT22;3996;49.674;10.716;2023-03-13T02:47:45;6.80;73.10
7902;DHT22;3996;49.674;10.716;2023-03-13T02:50:11;6.80;73.60
7902;DHT22;3996;49.674;10.716;2023-03-13T02:52:39;6.80;72.90
7902;DHT22;3996;49.674;10.716;2023-03-13T02:55:14;6.80;73.30
7902;DHT22;3996;49.674;10.716;2023-03-13T02:57:42;6.80;73.20
7902;DHT22;3996;49.674;10.716;2023-03-13T03:00:08;6.80;72.80
7902;DHT22;3996;49.674;10.716;2023-03-13T03:02:36;6.80;73.20
7902;DHT22;3996;49.674;10.716;2023-03-13T03:05:02;6.80;73.20
7902;DHT22;3996;49.674;10.716;2023-03-13T03:07:28;6.80;72.80
7902;DHT22;3996;49.674;10.716;2023-03-13T03:09:54;6.80;73.30
7902;DHT22;3996;49.674;10.716;2023-03-13T03:12:19;6.80;73.00
7902;DHT22;3996;49.674;10.716;2023-03-13T03:14:45;6.80;73.40
7902;DHT22;3996;49.674;10.716;2023-03-13T03:17:10;6.80;73.40
7902;DHT22;3996;49.674;10.716;2023-03-13T03:19:36;6.80;73.80
7902;DHT22;3996;49.674;10.716;2023-03-13T03:22:01;6.80;73.70
7902;DHT22;3996;49.674;10.716;2023-03-13T03:24:27;6.90;73.70
7902;DHT22;3996;49.674;10.716;2023-03-13T03:26:52;6.90;73.30
7902;DHT22;3996;49.674;10.716;2023-03-13T03:29:18;6.90;74.10
7902;DHT22;3996;49.674;10.716;2023-03-13T03:31:43;6.90;73.80
7902;DHT22;3996;49.674;10.716;2023-03-13T03:34:09;6.90;73.40
7902;DHT22;3996;49.674;10.716;2023-03-13T03:36:34;7.00;73.70
7902;DHT22;3996;49.674;10.716;2023-03-13T03:39:00;7.00;73.90
7902;DHT22;3996;49.674;10.716;2023-03-13T03:41:25;7.00;73.80
7902;DHT22;3996;49.674;10.716;2023-03-13T03:43:51;6.90;73.90
7902;DHT22;3996;49.674;10.716;2023-03-13T03:46:16;6.90;74.60
7902;DHT22;3996;49.674;10.716;2023-03-13T03:48:42;7.10;72.90
7902;DHT22;3996;49.674;10.716;2023-03-13T03:51:07;7.20;71.30
7902;DHT22;3996;49.674;10.716;2023-03-13T03:53:33;7.30;70.20
7902;DHT22;3996;49.674;10.716;2023-03-13T03:55:59;7.40;69.30
7902;DHT22;3996;49.674;10.716;2023-03-13T03:58:25;7.40;68.90
7902;DHT22;3996;49.674;10.716;2023-03-13T04:00:51;7.40;69.20
7902;DHT22;3996;49.674;10.716;2023-03-13T04:03:16;7.40;69.50
7902;DHT22;3996;49.674;10.716;2023-03-13T04:05:42;7.40;68.90
7902;DHT22;3996;49.674;10.716;2023-03-13T04:08:08;7.40;69.10
7902;DHT22;3996;49.674;10.716;2023-03-13T04:10:34;7.40;69.20
7902;DHT22;3996;49.674;10.716;2023-03-13T04:12:59;7.50;68.90
7902;DHT22;3996;49.674;10.716;2023-03-13T04:15:25;7.50;69.30
7902;DHT22;3996;49.674;10.716;2023-03-13T04:17:50;7.50;69.60
7902;DHT22;3996;49.674;10.716;2023-03-13T04:20:16;7.50;69.60
7902;DHT22;3996;49.674;10.716;2023-03-13T04:22:42;7.60;69.70
7902;DHT22;3996;49.674;10.716;2023-03-13T04:25:07;7.60;69.30
7902;DHT22;3996;49.674;10.716;2023-03-13T04:27:33;7.70;68.70
7902;DHT22;3996;49.674;10.716;2023-03-13T04:29:59;7.80;68.70
7902;DHT22;3996;49.674;10.716;2023-03-13T04:32:25;7.80;68.70
7902;DHT22;3996;49.674;10.716;2023-03-13T04:34:50;7.80;68.20
7902;DHT22;3996;49.674;10.716;2023-03-13T04:37:16;7.90;67.50
7902;DHT22;3996;49.674;10.716;2023-03-13T04:39:41;7.90;67.70
7902;DHT22;3996;49.674;10.716;2023-03-13T04:42:07;7.90;67.80
7902;DHT22;3996;49.674;10.716;2023-03-13T04:44:33;7.90;67.80
7902;DHT22;3996;49.674;10.716;2023-03-13T04:46:59;7.90;67.70
7902;DHT22;3996;49.674;10.716;2023-03-13T04:49:24;7.90;67.80
7902;DHT22;3996;49.674;10.716;2023-03-13T04:51:50;7.90;68.00
7902;DHT22;3996;49.674;10.716;2023-03-13T04:54:15;7.90;68.00
7902;DHT22;3996;49.674;10.716;2023-03-13T04:56:41;7.90;68.00
7902;DHT22;3996;49.674;10.716;2023-03-13T04:59:06;7.90;68.90
7902;DHT22;3996;49.674;10.716;2023-03-13T05:01:32;7.90;69.20
7902;DHT22;3996;49.674;10.716;2023-03-13T05:03:57;7.90;69.80
7902;DHT22;3996;49.674;10.716;2023-03-13T05:06:23;7.90;70.00
7902;DHT22;3996;49.674;10.716;2023-03-13T05:08:48;7.90;70.90
7902;DHT22;3996;49.674;10.716;2023-03-13T05:11:14;7.80;71.80
7902;DHT22;3996;49.674;10.716;2023-03-13T05:13:39;7.80;72.60
7902;DHT22;3996;49.674;10.716;2023-03-13T05:16:05;7.80;73.30
7902;DHT22;3996;49.674;10.716;2023-03-13T05:18:30;7.70;74.40
7902;DHT22;3996;49.674;10.716;2023-03-13T05:20:56;7.70;75.40
7902;DHT22;3996;49.674;10.716;2023-03-13T05:23:21;7.70;76.60
7902;DHT22;3996;49.674;10.716;2023-03-13T05:25:47;7.70;77.70
7902;DHT22;3996;49.674;10.716;2023-03-13T05:28:12;7.60;78.50
7902;DHT22;3996;49.674;10.716;2023-03-13T05:30:38;7.70;79.50
7902;DHT22;3996;49.674;10.716;2023-03-13T05:33:03;7.60;80.30
7902;DHT22;3996;49.674;10.716;2023-03-13T05:35:28;7.60;81.10
7902;DHT22;3996;49.674;10.716;2023-03-13T05:37:54;7.60;81.60
7902;DHT22;3996;49.674;10.716;2023-03-13T05:40:19;7.60;82.00
7902;DHT22;3996;49.674;10.716;2023-03-13T05:42:45;7.60;82.80
7902;DHT22;3996;49.674;10.716;2023-03-13T05:45:11;7.60;83.70
7902;DHT22;3996;49.674;10.716;2023-03-13T05:47:36;7.60;83.90
7902;DHT22;3996;49.674;10.716;2023-03-13T05:50:03;7.60;84.50
7902;DHT22;3996;49.674;10.716;2023-03-13T05:52:29;7.60;85.20
7902;DHT22;3996;49.674;10.716;2023-03-13T05:54:54;7.60;85.70
7902;DHT22;3996;49.674;10.716;2023-03-13T05:57:19;7.60;85.80
7902;DHT22;3996;49.674;10.716;2023-03-13T05:59:45;7.70;86.30
7902;DHT22;3996;49.674;10.716;2023-03-13T06:02:11;7.70;86.20
7902;DHT22;3996;49.674;10.716;2023-03-13T06:04:36;7.80;86.70
7902;DHT22;3996;49.674;10.716;2023-03-13T06:07:02;7.80;86.80
7902;DHT22;3996;49.674;10.716;2023-03-13T06:09:27;7.90;86.80
7902;DHT22;3996;49.674;10.716;2023-03-13T06:11:53;7.90;86.50
7902;DHT22;3996;49.674;10.716;2023-03-13T06:14:19;8.00;86.70
7902;DHT22;3996;49.674;10.716;2023-03-13T06:16:44;8.00;86.60
7902;DHT22;3996;49.674;10.716;2023-03-13T06:19:10;8.10;86.70
7902;DHT22;3996;49.674;10.716;2023-03-13T06:21:36;8.10;86.70
7902;DHT22;3996;49.674;10.716;2023-03-13T06:24:01;8.20;87.50
7902;DHT22;3996;49.674;10.716;2023-03-13T06:26:27;8.30;87.00
7902;DHT22;3996;49.674;10.716;2023-03-13T06:28:52;8.30;86.50
7902;DHT22;3996;49.674;10.716;2023-03-13T06:31:18;8.30;86.90
7902;DHT22;3996;49.674;10.716;2023-03-13T06:33:43;8.30;88.00
7902;DHT22;3996;49.674;10.716;2023-03-13T06:36:09;8.30;88.00
7902;DHT22;3996;49.674;10.716;2023-03-13T06:38:34;8.30;89.00
7902;DHT22;3996;49.674;10.716;2023-03-13T06:41:00;8.40;89.40
7902;DHT22;3996;49.674;10.716;2023-03-13T06:43:25;8.50;89.70
7902;DHT22;3996;49.674;10.716;2023-03-13T06:45:51;8.50;90.00
7902;DHT22;3996;49.674;10.716;2023-03-13T06:48:17;8.60;90.10
7902;DHT22;3996;49.674;10.716;2023-03-13T06:50:43;8.60;90.40
7902;DHT22;3996;49.674;10.716;2023-03-13T06:53:13;8.70;90.30
7902;DHT22;3996;49.674;10.716;2023-03-13T06:55:39;8.70;90.40
7902;DHT22;3996;49.674;10.716;2023-03-13T06:58:04;8.80;90.60
7902;DHT22;3996;49.674;10.716;2023-03-13T07:00:30;8.80;90.50
7902;DHT22;3996;49.674;10.716;2023-03-13T07:02:55;8.80;90.40
7902;DHT22;3996;49.674;10.716;2023-03-13T07:05:21;8.80;90.60
7902;DHT22;3996;49.674;10.716;2023-03-13T07:07:46;8.90;90.90
7902;DHT22;3996;49.674;10.716;2023-03-13T07:10:11;8.90;90.90
7902;DHT22;3996;49.674;10.716;2023-03-13T07:12:37;9.00;90.90
7902;DHT22;3996;49.674;10.716;2023-03-13T07:15:03;9.00;90.80
7902;DHT22;3996;49.674;10.716;2023-03-13T07:17:29;9.10;90.90
7902;DHT22;3996;49.674;10.716;2023-03-13T07:19:54;9.10;90.70
7902;DHT22;3996;49.674;10.716;2023-03-13T07:22:20;9.20;90.90
7902;DHT22;3996;49.674;10.716;2023-03-13T07:24:45;9.20;90.60
7902;DHT22;3996;49.674;10.716;2023-03-13T07:27:11;9.30;90.90
7902;DHT22;3996;49.674;10.716;2023-03-13T07:29:36;9.30;90.30
7902;DHT22;3996;49.674;10.716;2023-03-13T07:32:02;9.30;90.20
7902;DHT22;3996;49.674;10.716;2023-03-13T07:34:27;9.30;90.10
7902;DHT22;3996;49.674;10.716;2023-03-13T07:36:53;9.30;90.10
7902;DHT22;3996;49.674;10.716;2023-03-13T07:39:18;9.30;89.20
7902;DHT22;3996;49.674;10.716;2023-03-13T07:41:43;9.30;88.80
7902;DHT22;3996;49.674;10.716;2023-03-13T07:44:09;9.40;89.40
7902;DHT22;3996;49.674;10.716;2023-03-13T07:46:34;9.30;89.10
7902;DHT22;3996;49.674;10.716;2023-03-13T07:49:00;9.40;89.20
7902;DHT22;3996;49.674;10.716;2023-03-13T07:51:25;9.40;89.10
7902;DHT22;3996;49.674;10.716;2023-03-13T07:53:51;9.40;88.90
7902;DHT22;3996;49.674;10.716;2023-03-13T07:56:18;9.40;89.00
7902;DHT22;3996;49.674;10.716;2023-03-13T07:58:44;9.40;89.00
7902;DHT22;3996;49.674;10.716;2023-03-13T08:01:13;9.40;89.20
7902;DHT22;3996;49.674;10.716;2023-03-13T08:03:40;9.40;88.80
7902;DHT22;3996;49.674;10.716;2023-03-13T08:06:06;9.40;88.90
7902;DHT22;3996;49.674;10.716;2023-03-13T08:08:32;9.40;89.20
7902;DHT22;3996;49.674;10.716;2023-03-13T08:10:58;9.40;89.30
7902;DHT22;3996;49.674;10.716;2023-03-13T08:13:24;9.50;89.10
7902;DHT22;3996;49.674;10.716;2023-03-13T08:15:50;9.60;89.10
7902;DHT22;3996;49.674;10.716;2023-03-13T08:18:15;9.70;89.20
7902;DHT22;3996;49.674;10.716;2023-03-13T08:20:40;9.80;89.30
7902;DHT22;3996;49.674;10.716;2023-03-13T08:23:06;9.90;88.20
7902;DHT22;3996;49.674;10.716;2023-03-13T08:25:32;10.00;86.50
7902;DHT22;3996;49.674;10.716;2023-03-13T08:27:57;10.10;86.30
7902;DHT22;3996;49.674;10.716;2023-03-13T08:30:23;10.10;86.60
7902;DHT22;3996;49.674;10.716;2023-03-13T08:32:48;10.20;87.60
7902;DHT22;3996;49.674;10.716;2023-03-13T08:35:14;10.20;86.60
7902;DHT22;3996;49.674;10.716;2023-03-13T08:37:39;10.20;85.90
7902;DHT22;3996;49.674;10.716;2023-03-13T08:40:06;10.30;85.90
7902;DHT22;3996;49.674;10.716;2023-03-13T08:42:35;10.30;85.40
7902;DHT22;3996;49.674;10.716;2023-03-13T08:45:01;10.40;85.20
7902;DHT22;3996;49.674;10.716;2023-03-13T08:47:26;10.40;85.20
7902;DHT22;3996;49.674;10.716;2023-03-13T08:49:52;10.50;85.40
7902;DHT22;3996;49.674;10.716;2023-03-13T08:52:19;10.60;85.20
7902;DHT22;3996;49.674;10.716;2023-03-13T08:54:47;10.70;84.30
7902;DHT22;3996;49.674;10.716;2023-03-13T08:57:12;10.80;84.20
7902;DHT22;3996;49.674;10.716;2023-03-13T08:59:38;10.90;84.10
7902;DHT22;3996;49.674;10.716;2023-03-13T09:02:03;11.00;84.10
7902;DHT22;3996;49.674;10.716;2023-03-13T09:04:29;11.10;84.40
7902;DHT22;3996;49.674;10.716;2023-03-13T09:06:55;11.20;82.70
7902;DHT22;3996;49.674;10.716;2023-03-13T09:09:20;11.30;82.40
7902;DHT22;3996;49.674;10.716;2023-03-13T09:11:46;11.30;80.70
7902;DHT22;3996;49.674;10.716;2023-03-13T09:14:11;11.30;80.60
7902;DHT22;3996;49.674;10.716;2023-03-13T09:16:37;11.40;81.30
7902;DHT22;3996;49.674;10.716;2023-03-13T09:19:03;11.30;81.30
7902;DHT22;3996;49.674;10.716;2023-03-13T09:21:29;11.40;80.60
7902;DHT22;3996;49.674;10.716;2023-03-13T09:23:55;11.40;80.80
7902;DHT22;3996;49.674;10.716;2023-03-13T09:26:21;11.50;80.80
7902;DHT22;3996;49.674;10.716;2023-03-13T09:28:46;11.60;81.40
7902;DHT22;3996;49.674;10.716;2023-03-13T09:31:13;11.60;80.00
7902;DHT22;3996;49.674;10.716;2023-03-13T09:33:39;11.60;81.90
7902;DHT22;3996;49.674;10.716;2023-03-13T09:36:05;11.70;80.50
7902;DHT22;3996;49.674;10.716;2023-03-13T09:38:30;11.70;80.80
7902;DHT22;3996;49.674;10.716;2023-03-13T09:40:59;11.70;81.90
7902;DHT22;3996;49.674;10.716;2023-03-13T09:45:51;11.80;80.80
7902;DHT22;3996;49.674;10.716;2023-03-13T09:51:12;11.80;80.50
7902;DHT22;3996;49.674;10.716;2023-03-13T09:53:37;11.90;80.40
7902;DHT22;3996;49.674;10.716;2023-03-13T09:56:06;11.90;80.40
7902;DHT22;3996;49.674;10.716;2023-03-13T09:58:46;11.90;80.40
7902;DHT22;3996;49.674;10.716;2023-03-13T10:01:12;12.00;81.10
7902;DHT22;3996;49.674;10.716;2023-03-13T10:03:43;12.00;79.50
7902;DHT22;3996;49.674;10.716;2023-03-13T10:06:18;12.10;79.20
7902;DHT22;3996;49.674;10.716;2023-03-13T10:08:44;12.10;77.80
7902;DHT22;3996;49.674;10.716;2023-03-13T10:11:23;12.00;78.80
7902;DHT22;3996;49.674;10.716;2023-03-13T10:18:55;12.20;74.30
7902;DHT22;3996;49.674;10.716;2023-03-13T10:21:22;12.20;73.00
7902;DHT22;3996;49.674;10.716;2023-03-13T10:23:49;12.30;73.60
7902;DHT22;3996;49.674;10.716;2023-03-13T10:26:18;12.30;71.40
7902;DHT22;3996;49.674;10.716;2023-03-13T10:28:45;12.30;70.60
7902;DHT22;3996;49.674;10.716;2023-03-13T10:33:37;12.40;69.20
7902;DHT22;3996;49.674;10.716;2023-03-13T10:38:32;12.50;68.40
7902;DHT22;3996;49.674;10.716;2023-03-13T10:40:58;12.50;67.90
7902;DHT22;3996;49.674;10.716;2023-03-13T10:43:25;12.60;68.40
7902;DHT22;3996;49.674;10.716;2023-03-13T10:45:51;12.70;67.80
7902;DHT22;3996;49.674;10.716;2023-03-13T10:48:24;12.80;67.70
7902;DHT22;3996;49.674;10.716;2023-03-13T10:50:52;12.80;66.80
7902;DHT22;3996;49.674;10.716;2023-03-13T10:53:25;13.00;66.70
7902;DHT22;3996;49.674;10.716;2023-03-13T10:56:12;13.10;64.10
7902;DHT22;3996;49.674;10.716;2023-03-13T10:58:49;13.20;63.50
7902;DHT22;3996;49.674;10.716;2023-03-13T11:01:41;13.40;63.50
7902;DHT22;3996;49.674;10.716;2023-03-13T11:04:27;13.70;61.10
7902;DHT22;3996;49.674;10.716;2023-03-13T11:07:00;14.10;60.50
7902;DHT22;3996;49.674;10.716;2023-03-13T11:09:26;14.70;57.30
7902;DHT22;3996;49.674;10.716;2023-03-13T11:11:54;14.70;54.80
7902;DHT22;3996;49.674;10.716;2023-03-13T11:14:24;14.40;55.50
7902;DHT22;3996;49.674;10.716;2023-03-13T11:16:59;14.40;55.90
7902;DHT22;3996;49.674;10.716;2023-03-13T11:19:40;14.30;56.50
7902;DHT22;3996;49.674;10.716;2023-03-13T11:22:18;14.30;56.50
7902;DHT22;3996;49.674;10.716;2023-03-13T11:25:08;14.20;55.80
7902;DHT22;3996;49.674;10.716;2023-03-13T11:36:10;13.70;57.10
7902;DHT22;3996;49.674;10.716;2023-03-13T11:38:41;13.70;57.60
7902;DHT22;3996;49.674;10.716;2023-03-13T11:47:02;13.80;55.80
7902;DHT22;3996;49.674;10.716;2023-03-13T11:49:42;14.10;55.00
7902;DHT22;3996;49.674;10.716;2023-03-13T11:55:17;15.10;49.40
7902;DHT22;3996;49.674;10.716;2023-03-13T11:57:59;16.00;49.00
7902;DHT22;3996;49.674;10.716;2023-03-13T12:00:36;16.70;43.00
7902;DHT22;3996;49.674;10.716;2023-03-13T12:05:53;16.90;39.80
7902;DHT22;3996;49.674;10.716;2023-03-13T12:08:35;16.90;38.00
7902;DHT22;3996;49.674;10.716;2023-03-13T12:11:15;16.70;38.50
7902;DHT22;3996;49.674;10.716;2023-03-13T12:14:00;16.60;39.20
7902;DHT22;3996;49.674;10.716;2023-03-13T12:16:42;16.80;39.90
7902;DHT22;3996;49.674;10.716;2023-03-13T12:19:13;17.20;38.30
7902;DHT22;3996;49.674;10.716;2023-03-13T12:21:47;17.80;36.80
7902;DHT22;3996;49.674;10.716;2023-03-13T12:24:38;17.80;36.30
7902;DHT22;3996;49.674;10.716;2023-03-13T12:27:25;17.90;34.40
7902;DHT22;3996;49.674;10.716;2023-03-13T12:30:13;18.10;34.10
7902;DHT22;3996;49.674;10.716;2023-03-13T12:32:44;17.80;33.40
7902;DHT22;3996;49.674;10.716;2023-03-13T12:38:05;18.00;32.60
7902;DHT22;3996;49.674;10.716;2023-03-13T12:40:43;17.90;33.00
7902;DHT22;3996;49.674;10.716;2023-03-13T12:43:17;18.10;34.40
7902;DHT22;3996;49.674;10.716;2023-03-13T12:46:11;18.30;33.10
7902;DHT22;3996;49.674;10.716;2023-03-13T12:51:59;18.50;30.20
7902;DHT22;3996;49.674;10.716;2023-03-13T12:54:57;18.60;31.50
7902;DHT22;3996;49.674;10.716;2023-03-13T13:00:34;18.80;30.50
7902;DHT22;3996;49.674;10.716;2023-03-13T13:06:04;18.90;30.60
7902;DHT22;3996;49.674;10.716;2023-03-13T13:08:37;19.00;30.60
7902;DHT22;3996;49.674;10.716;2023-03-13T13:18:12;18.80;28.30
7902;DHT22;3996;49.674;10.716;2023-03-13T13:20:39;18.70;29.10
7902;DHT22;3996;49.674;10.716;2023-03-13T13:23:30;18.80;29.80
7902;DHT22;3996;49.674;10.716;2023-03-13T13:28:59;18.90;29.00
7902;DHT22;3996;49.674;10.716;2023-03-13T13:31:45;18.90;28.60
7902;DHT22;3996;49.674;10.716;2023-03-13T13:36:53;18.70;28.80
7902;DHT22;3996;49.674;10.716;2023-03-13T13:39:38;18.40;29.70
7902;DHT22;3996;49.674;10.716;2023-03-13T13:45:03;17.70;30.60
7902;DHT22;3996;49.674;10.716;2023-03-13T13:47:30;17.60;31.70
7902;DHT22;3996;49.674;10.716;2023-03-13T13:49:57;17.50;32.00
7902;DHT22;3996;49.674;10.716;2023-03-13T13:52:38;17.40;32.50
7902;DHT22;3996;49.674;10.716;2023-03-13T13:58:08;17.10;32.90
7902;DHT22;3996;49.674;10.716;2023-03-13T14:00:42;17.10;33.20
7902;DHT22;3996;49.674;10.716;2023-03-13T14:03:26;17.20;33.50
7902;DHT22;3996;49.674;10.716;2023-03-13T14:06:11;17.10;32.70
7902;DHT22;3996;49.674;10.716;2023-03-13T14:08:40;17.00;33.20
7902;DHT22;3996;49.674;10.716;2023-03-13T14:13:39;16.90;33.90
7902;DHT22;3996;49.674;10.716;2023-03-13T14:16:23;16.90;33.70
7902;DHT22;3996;49.674;10.716;2023-03-13T14:18:50;16.90;33.40
7902;DHT22;3996;49.674;10.716;2023-03-13T14:21:21;16.80;34.10
7902;DHT22;3996;49.674;10.716;2023-03-13T14:23:47;16.70;34.00
7902;DHT22;3996;49.674;10.716;2023-03-13T14:26:27;16.70;34.80
7902;DHT22;3996;49.674;10.716;2023-03-13T14:28:58;16.70;35.00
7902;DHT22;3996;49.674;10.716;2023-03-13T14:31:32;16.80;35.40
7902;DHT22;3996;49.674;10.716;2023-03-13T14:34:01;17.10;35.00
7902;DHT22;3996;49.674;10.716;2023-03-13T14:36:27;17.30;35.20
7902;DHT22;3996;49.674;10.716;2023-03-13T14:38:58;17.60;33.40
7902;DHT22;3996;49.674;10.716;2023-03-13T14:41:40;17.80;33.10
7902;DHT22;3996;49.674;10.716;2023-03-13T14:44:26;18.10;32.00
7902;DHT22;3996;49.674;10.716;2023-03-13T14:46:58;18.10;31.30
7902;DHT22;3996;49.674;10.716;2023-03-13T14:49:26;17.90;31.00
7902;DHT22;3996;49.674;10.716;2023-03-13T14:51:58;17.80;31.50
7902;DHT22;3996;49.674;10.716;2023-03-13T14:54:28;18.00;30.50
7902;DHT22;3996;49.674;10.716;2023-03-13T14:59:35;18.40;30.00
7902;DHT22;3996;49.674;10.716;2023-03-13T15:02:29;18.40;30.00
7902;DHT22;3996;49.674;10.716;2023-03-13T15:05:02;18.40;29.50
7902;DHT22;3996;49.674;10.716;2023-03-13T15:07:40;18.30;30.00
7902;DHT22;3996;49.674;10.716;2023-03-13T15:10:31;18.40;30.20
7902;DHT22;3996;49.674;10.716;2023-03-13T15:12:57;18.40;29.40
7902;DHT22;3996;49.674;10.716;2023-03-13T15:15:23;18.30;29.10
7902;DHT22;3996;49.674;10.716;2023-03-13T15:17:49;18.40;28.50
7902;DHT22;3996;49.674;10.716;2023-03-13T15:20:15;18.40;27.90
7902;DHT22;3996;49.674;10.716;2023-03-13T15:22:43;18.40;28.20
7902;DHT22;3996;49.674;10.716;2023-03-13T15:25:18;18.30;29.00
7902;DHT22;3996;49.674;10.716;2023-03-13T15:27:45;18.30;28.60
7902;DHT22;3996;49.674;10.716;2023-03-13T15:30:20;18.20;30.80
7902;DHT22;3996;49.674;10.716;2023-03-13T15:32:49;18.00;28.60
7902;DHT22;3996;49.674;10.716;2023-03-13T15:35:32;17.90;27.20
7902;DHT22;3996;49.674;10.716;2023-03-13T15:38:00;17.80;27.70
7902;DHT22;3996;49.674;10.716;2023-03-13T15:40:27;17.80;27.90
7902;DHT22;3996;49.674;10.716;2023-03-13T15:42:54;17.80;28.50
7902;DHT22;3996;49.674;10.716;2023-03-13T15:45:20;17.90;27.90
7902;DHT22;3996;49.674;10.716;2023-03-13T15:47:46;17.90;27.40
7902;DHT22;3996;49.674;10.716;2023-03-13T15:50:15;17.90;27.30
7902;DHT22;3996;49.674;10.716;2023-03-13T15:52:41;18.00;27.20
7902;DHT22;3996;49.674;10.716;2023-03-13T15:55:08;18.00;27.70
7902;DHT22;3996;49.674;10.716;2023-03-13T15:57:35;18.00;27.10
7902;DHT22;3996;49.674;10.716;2023-03-13T16:00:03;17.90;27.40
7902;DHT22;3996;49.674;10.716;2023-03-13T16:02:31;17.90;27.50
7902;DHT22;3996;49.674;10.716;2023-03-13T16:04:56;18.00;28.90
7902;DHT22;3996;49.674;10.716;2023-03-13T16:07:22;17.90;27.60
7902;DHT22;3996;49.674;10.716;2023-03-13T16:09:49;17.80;27.90
7902;DHT22;3996;49.674;10.716;2023-03-13T16:12:14;17.80;28.70
7902;DHT22;3996;49.674;10.716;2023-03-13T16:14:40;17.70;28.20
7902;DHT22;3996;49.674;10.716;2023-03-13T16:17:16;17.60;29.10
7902;DHT22;3996;49.674;10.716;2023-03-13T16:19:43;17.50;30.00
7902;DHT22;3996;49.674;10.716;2023-03-13T16:22:09;17.40;29.70
7902;DHT22;3996;49.674;10.716;2023-03-13T16:24:34;17.40;30.20
7902;DHT22;3996;49.674;10.716;2023-03-13T16:27:00;17.40;30.00
7902;DHT22;3996;49.674;10.716;2023-03-13T16:29:25;17.30;31.30
7902;DHT22;3996;49.674;10.716;2023-03-13T16:31:51;17.30;30.40
7902;DHT22;3996;49.674;10.716;2023-03-13T16:34:17;17.20;30.70
7902;DHT22;3996;49.674;10.716;2023-03-13T16:36:43;17.10;31.40
7902;DHT22;3996;49.674;10.716;2023-03-13T16:39:13;17.00;31.30
7902;DHT22;3996;49.674;10.716;2023-03-13T16:41:39;17.00;31.70
7902;DHT22;3996;49.674;10.716;2023-03-13T16:44:05;16.80;32.00
7902;DHT22;3996;49.674;10.716;2023-03-13T16:46:37;16.80;32.60
7902;DHT22;3996;49.674;10.716;2023-03-13T16:49:04;16.70;32.60
7902;DHT22;3996;49.674;10.716;2023-03-13T16:51:30;16.60;32.80
7902;DHT22;3996;49.674;10.716;2023-03-13T16:53:57;16.50;32.70
7902;DHT22;3996;49.674;10.716;2023-03-13T16:58:55;16.50;34.20
7902;DHT22;3996;49.674;10.716;2023-03-13T17:01:21;16.50;33.70
7902;DHT22;3996;49.674;10.716;2023-03-13T17:03:50;16.30;34.40
7902;DHT22;3996;49.674;10.716;2023-03-13T17:06:19;16.20;34.90
7902;DHT22;3996;49.674;10.716;2023-03-13T17:08:46;16.10;35.70
7902;DHT22;3996;49.674;10.716;2023-03-13T17:11:13;16.00;35.60
7902;DHT22;3996;49.674;10.716;2023-03-13T17:13:42;16.00;35.10
7902;DHT22;3996;49.674;10.716;2023-03-13T17:16:14;16.00;35.40
7902;DHT22;3996;49.674;10.716;2023-03-13T17:18:40;15.90;35.80
7902;DHT22;3996;49.674;10.716;2023-03-13T17:21:21;15.80;35.60